createdAt,value
2019-05-25T00:01:11.139Z,4.33
2019-05-25T00:03:42.666Z,4.73
2019-05-25T00:06:11.154Z,4.40
2019-05-25T00:08:48.399Z,4.17
2019-05-25T00:11:16.803Z,4.50
2019-05-25T00:13:47.643Z,4.70
2019-05-25T00:16:16.470Z,4.67
2019-05-25T00:18:46.542Z,4.50
2019-05-25T00:21:17.793Z,4.90
2019-05-25T00:24:11.211Z,4.13
2019-05-25T00:26:27.147Z,4.10
2019-05-25T00:28:55.566Z,4.77
2019-05-25T00:31:25.694Z,4.07
2019-05-25T00:33:57.464Z,4.80
2019-05-25T00:36:25.880Z,4.33
2019-05-25T00:39:06.469Z,4.23
2019-05-25T00:41:37.817Z,4.30
2019-05-25T00:44:09.414Z,4.63
2019-05-25T00:46:38.165Z,4.13
2019-05-25T00:49:15.403Z,4.23
2019-05-25T00:51:43.827Z,4.27
2019-05-25T00:54:27.055Z,4.37
2019-05-25T00:56:42.390Z,4.10
2019-05-25T00:59:12.738Z,4.47
2019-05-25T01:01:41.164Z,4.60
2019-05-25T01:04:20.263Z,5.27
2019-05-25T01:08:29.526Z,4.67
2019-05-25T01:09:27.002Z,4.43
2019-05-25T01:11:55.424Z,5.03
2019-05-25T01:14:24.283Z,5.30
2019-05-25T01:16:57.446Z,4.57
2019-05-25T01:19:30.175Z,4.73
2019-05-25T01:22:01.621Z,4.30
2019-05-25T01:24:43.751Z,4.70
2019-05-25T01:27:12.034Z,4.40
2019-05-25T01:29:42.099Z,4.40
2019-05-25T01:32:13.165Z,5.07
2019-05-25T01:34:43.211Z,4.90
2019-05-25T01:37:25.405Z,5.10
2019-05-25T01:39:56.582Z,4.97
2019-05-25T01:42:29.079Z,5.30
2019-05-25T01:44:58.393Z,5.17
2019-05-25T01:47:27.610Z,5.47
2019-05-25T01:50:04.617Z,5.10
2019-05-25T01:52:33.335Z,4.90
2019-05-25T01:55:01.764Z,5.13
2019-05-25T01:57:33.260Z,5.13
2019-05-25T02:00:07.623Z,5.07
2019-05-25T02:02:37.692Z,5.33
2019-05-25T02:05:09.366Z,4.90
2019-05-25T02:07:40.515Z,5.43
2019-05-25T02:10:12.166Z,5.10
2019-05-25T02:12:43.541Z,5.10
2019-05-25T02:15:15.359Z,4.83
2019-05-25T02:17:43.791Z,5.50
2019-05-25T02:20:15.366Z,5.57
2019-05-25T02:22:46.885Z,5.07
2019-05-25T02:25:18.288Z,5.00
2019-05-25T02:27:51.710Z,5.40
2019-05-25T02:30:26.284Z,5.00
2019-05-25T02:33:01.142Z,4.93
2019-05-25T02:35:37.382Z,5.20
2019-05-25T02:38:05.811Z,5.00
2019-05-25T02:40:36.905Z,5.63
2019-05-25T02:43:05.406Z,5.50
2019-05-25T02:45:36.845Z,5.47
2019-05-25T02:48:05.854Z,4.90
2019-05-25T02:50:38.542Z,4.67
2019-05-25T02:53:15.542Z,5.57
2019-05-25T02:55:49.594Z,5.60
2019-05-25T02:58:24.161Z,5.33
2019-05-25T03:00:58.358Z,5.70
2019-05-25T03:03:27.447Z,5.27
2019-05-25T03:06:00.584Z,5.27
2019-05-25T03:08:38.683Z,5.27
2019-05-25T03:11:12.958Z,4.80
2019-05-25T03:13:47.033Z,5.50
2019-05-25T03:16:15.436Z,5.33
2019-05-25T03:18:43.870Z,5.60
2019-05-25T03:21:15.558Z,5.00
2019-05-25T03:23:47.497Z,5.30
2019-05-25T03:26:22.154Z,5.40
2019-05-25T03:28:57.222Z,5.20
2019-05-25T03:31:28.590Z,5.50
2019-05-25T03:34:00.243Z,5.53
2019-05-25T03:36:31.739Z,5.67
2019-05-25T03:39:04.346Z,5.50
2019-05-25T03:41:35.924Z,5.00
2019-05-25T03:44:05.125Z,4.80
2019-05-25T03:46:45.474Z,5.20
2019-05-25T03:49:19.316Z,4.80
2019-05-25T03:51:50.925Z,5.30
2019-05-25T03:54:22.295Z,5.40
2019-05-25T03:56:55.746Z,5.07
2019-05-25T03:59:31.573Z,4.80
2019-05-25T04:02:00.004Z,4.83
2019-05-25T04:04:35.716Z,4.97
2019-05-25T04:07:05.833Z,5.50
2019-05-25T04:09:49.167Z,5.37
2019-05-25T04:12:23.394Z,5.10
2019-05-25T04:14:54.733Z,4.70
2019-05-25T04:17:23.629Z,4.33
2019-05-25T04:19:52.047Z,4.60
2019-05-25T04:22:27.214Z,4.70
2019-05-25T04:24:55.635Z,4.40
2019-05-25T04:27:24.070Z,5.27
2019-05-25T04:29:58.180Z,4.90
2019-05-25T04:32:34.909Z,5.60
2019-05-25T04:35:12.130Z,5.30
2019-05-25T04:37:43.625Z,5.80
2019-05-25T04:40:18.171Z,5.57
2019-05-25T04:42:50.031Z,5.23
2019-05-25T04:45:21.752Z,4.53
2019-05-25T04:47:55.730Z,4.60
2019-05-25T04:50:24.153Z,4.97
2019-05-25T04:52:52.578Z,4.47
2019-05-25T04:55:29.901Z,4.40
2019-05-25T04:58:03.115Z,4.37
2019-05-25T05:00:37.302Z,4.30
2019-05-25T05:03:05.745Z,4.43
2019-05-25T05:05:34.239Z,3.80
2019-05-25T05:08:04.388Z,3.50
2019-05-25T05:10:35.553Z,3.93
2019-05-25T05:13:08.486Z,3.67
2019-05-25T05:15:39.641Z,3.77
2019-05-25T05:18:09.879Z,3.60
2019-05-25T05:20:40.830Z,3.53
2019-05-25T05:23:11.186Z,3.70
2019-05-25T05:25:39.720Z,3.57
2019-05-25T05:28:14.826Z,3.63
2019-05-25T05:30:43.360Z,3.50
2019-05-25T05:33:14.845Z,3.60
2019-05-25T05:35:46.324Z,3.53
2019-05-25T05:38:18.426Z,3.23
2019-05-25T05:40:50.792Z,3.50
2019-05-25T05:43:25.299Z,3.80
2019-05-25T05:45:55.372Z,3.37
2019-05-25T05:48:25.979Z,3.30
2019-05-25T05:50:56.226Z,3.37
2019-05-25T05:53:29.850Z,3.60
2019-05-25T05:55:59.897Z,3.50
2019-05-25T05:58:31.370Z,3.23
2019-05-25T06:01:02.626Z,3.40
2019-05-25T06:03:31.075Z,3.97
2019-05-25T06:06:05.320Z,4.20
2019-05-25T06:08:33.742Z,3.97
2019-05-25T06:11:05.159Z,3.80
2019-05-25T06:13:42.199Z,3.80
2019-05-25T06:16:16.139Z,3.70
2019-05-25T06:18:50.306Z,3.33
2019-05-25T06:21:22.230Z,3.00
2019-05-25T06:23:55.357Z,3.13
2019-05-25T06:26:33.811Z,2.90
2019-05-25T06:29:05.210Z,3.20
2019-05-25T06:31:35.275Z,3.23
2019-05-25T06:34:12.213Z,3.60
2019-05-25T06:36:42.250Z,3.30
2019-05-25T06:39:28.883Z,3.50
2019-05-25T06:41:45.118Z,3.27
2019-05-25T06:44:15.179Z,3.27
2019-05-25T06:46:45.324Z,3.30
2019-05-25T06:49:16.714Z,3.20
2019-05-25T06:51:48.291Z,3.37
2019-05-25T06:54:20.904Z,3.08
2019-05-25T06:56:49.314Z,3.30
2019-05-25T06:59:20.660Z,3.22
2019-05-25T07:01:52.039Z,3.37
2019-05-25T07:04:25.650Z,2.92
2019-05-25T07:06:54.077Z,3.27
2019-05-25T07:09:25.211Z,3.10
2019-05-25T07:11:53.649Z,3.70
2019-05-25T07:14:25.129Z,3.10
2019-05-25T07:17:01.010Z,3.40
2019-05-25T07:19:44.607Z,3.40
2019-05-25T07:22:13.060Z,3.20
2019-05-25T07:24:44.198Z,3.63
2019-05-25T07:27:16.020Z,3.67
2019-05-25T07:29:53.162Z,3.20
2019-05-25T07:32:31.716Z,3.20
2019-05-25T07:35:13.225Z,3.53
2019-05-25T07:37:47.047Z,3.43
2019-05-25T07:40:15.520Z,3.47
2019-05-25T07:42:48.254Z,3.43
2019-05-25T07:45:22.871Z,3.50
2019-05-25T07:47:53.947Z,3.40
2019-05-25T07:50:25.526Z,3.00
2019-05-25T07:52:53.953Z,3.50
2019-05-25T07:55:25.339Z,3.50
2019-05-25T07:57:54.636Z,3.30
2019-05-25T08:00:26.377Z,3.27
2019-05-25T08:03:14.577Z,3.67
2019-05-25T08:05:43.007Z,4.33
2019-05-25T08:08:15.850Z,4.73
2019-05-25T08:10:44.576Z,4.53
2019-05-25T08:13:14.801Z,4.20
2019-05-25T08:15:46.582Z,4.80
2019-05-25T08:18:19.307Z,5.20
2019-05-25T08:20:53.854Z,4.13
2019-05-25T08:23:24.950Z,5.03
2019-05-25T08:25:57.923Z,4.60
2019-05-25T08:28:33.327Z,5.17
2019-05-25T08:31:15.335Z,5.17
2019-05-25T08:33:45.723Z,6.17
2019-05-25T08:36:18.522Z,5.60
2019-05-25T08:38:48.933Z,5.70
2019-05-25T08:41:23.665Z,4.77
2019-05-25T08:44:04.456Z,5.20
2019-05-25T08:46:37.111Z,5.20
2019-05-25T08:49:14.635Z,4.40
2019-05-25T08:51:43.268Z,4.43
2019-05-25T08:54:15.898Z,4.40
2019-05-25T08:56:44.306Z,5.27
2019-05-25T08:59:15.206Z,4.40
2019-05-25T09:01:51.020Z,4.73
2019-05-25T09:04:20.326Z,5.03
2019-05-25T09:06:57.490Z,5.00
2019-05-25T09:09:28.888Z,5.10
2019-05-25T09:12:04.984Z,4.50
2019-05-25T09:14:35.348Z,4.27
2019-05-25T09:17:03.759Z,5.57
2019-05-25T09:19:33.833Z,5.27
2019-05-25T09:22:05.206Z,4.40
2019-05-25T09:24:41.127Z,5.33
2019-05-25T09:27:09.610Z,5.53
2019-05-25T09:29:42.057Z,4.83
2019-05-25T09:32:10.763Z,5.07
2019-05-25T09:34:42.119Z,4.87
2019-05-25T09:37:16.366Z,4.63
2019-05-25T09:39:50.614Z,4.53
2019-05-25T09:42:24.703Z,5.47
2019-05-25T09:44:58.977Z,5.57
2019-05-25T09:47:27.668Z,4.03
2019-05-25T09:49:56.261Z,3.80
2019-05-25T09:52:29.920Z,4.00
2019-05-25T09:55:00.897Z,4.30
2019-05-25T09:57:31.138Z,4.93
2019-05-25T09:59:59.683Z,5.47
2019-05-25T10:02:31.010Z,5.00
2019-05-25T10:04:59.461Z,5.83
2019-05-25T10:07:36.312Z,3.90
2019-05-25T10:10:08.213Z,4.03
2019-05-25T10:12:44.134Z,4.17
2019-05-25T10:15:13.168Z,3.80
2019-05-25T10:17:45.939Z,4.10
2019-05-25T10:20:14.662Z,3.65
2019-05-25T10:22:44.731Z,4.05
2019-05-25T10:25:15.984Z,3.62
2019-05-25T10:27:52.899Z,4.08
2019-05-25T10:30:21.570Z,4.05
2019-05-25T10:32:51.636Z,3.93
2019-05-25T10:35:22.950Z,4.00
2019-05-25T10:37:51.393Z,3.97
2019-05-25T10:40:20.152Z,3.80
2019-05-25T10:42:51.616Z,3.87
2019-05-25T10:45:24.130Z,3.90
2019-05-25T10:47:52.621Z,5.13
2019-05-25T10:50:24.514Z,4.50
2019-05-25T10:52:55.743Z,3.70
2019-05-25T10:55:24.309Z,4.17
2019-05-25T10:57:55.900Z,3.60
2019-05-25T11:00:28.956Z,3.70
2019-05-25T11:03:00.711Z,3.20
2019-05-25T11:05:30.772Z,3.40
2019-05-25T11:07:59.399Z,3.17
2019-05-25T11:10:36.284Z,3.90
2019-05-25T11:13:04.862Z,3.50
2019-05-25T11:15:36.570Z,4.37
2019-05-25T11:18:09.623Z,4.60
2019-05-25T11:20:39.701Z,5.07
2019-05-25T11:23:10.685Z,5.60
2019-05-25T11:25:45.363Z,4.93
2019-05-25T11:28:22.925Z,5.27
2019-05-25T11:30:54.778Z,4.70
2019-05-25T11:33:23.265Z,4.77
2019-05-25T11:35:58.073Z,4.50
2019-05-25T11:38:29.516Z,4.83
2019-05-25T11:40:57.955Z,3.93
2019-05-25T11:43:29.173Z,4.40
2019-05-25T11:45:57.594Z,3.60
2019-05-25T11:48:30.312Z,4.03
2019-05-25T11:51:01.595Z,4.77
2019-05-25T11:53:32.978Z,4.33
2019-05-25T11:56:07.199Z,4.27
2019-05-25T11:58:47.101Z,3.33
2019-05-25T12:01:07.846Z,3.07
2019-05-25T12:03:40.562Z,3.93
2019-05-25T12:06:24.951Z,3.20
2019-05-25T12:08:53.380Z,3.77
2019-05-25T12:11:25.179Z,4.53
2019-05-25T12:13:56.354Z,5.10
2019-05-25T12:16:33.131Z,4.70
2019-05-25T12:19:06.630Z,4.90
2019-05-25T12:21:38.019Z,4.80
2019-05-25T12:24:12.346Z,5.63
2019-05-25T12:26:42.418Z,5.20
2019-05-25T12:29:10.834Z,5.97
2019-05-25T12:31:39.254Z,5.23
2019-05-25T12:34:10.385Z,4.80
2019-05-25T12:36:39.646Z,4.90
2019-05-25T12:39:11.078Z,3.70
2019-05-25T12:41:41.145Z,4.10
2019-05-25T12:44:16.113Z,3.97
2019-05-25T12:46:47.260Z,3.37
2019-05-25T12:49:24.696Z,3.50
2019-05-25T12:51:53.111Z,3.50
2019-05-25T12:54:30.075Z,5.30
2019-05-25T12:56:58.506Z,6.23
2019-05-25T12:59:26.931Z,5.27
2019-05-25T13:01:57.246Z,4.07
2019-05-25T13:04:25.672Z,3.50
2019-05-25T13:06:54.099Z,3.07
2019-05-25T13:09:22.514Z,3.33
2019-05-25T13:11:55.498Z,3.10
2019-05-25T13:14:23.912Z,4.07
2019-05-25T13:16:52.670Z,3.60
2019-05-25T13:19:26.813Z,3.63
2019-05-25T13:21:58.258Z,3.50
2019-05-25T13:24:32.214Z,3.17
2019-05-25T13:27:00.697Z,4.50
2019-05-25T13:29:34.849Z,3.70
2019-05-25T13:32:07.588Z,3.37
2019-05-25T13:34:48.024Z,4.10
2019-05-25T13:37:19.241Z,4.23
2019-05-25T13:39:50.506Z,4.77
2019-05-25T13:42:24.633Z,4.23
2019-05-25T13:44:55.597Z,4.30
2019-05-25T13:47:28.543Z,4.20
2019-05-25T13:50:01.634Z,3.80
2019-05-25T13:52:31.720Z,4.17
2019-05-25T13:55:03.106Z,4.27
2019-05-25T13:57:33.158Z,3.70
2019-05-25T14:00:07.307Z,3.80
2019-05-25T14:02:38.678Z,3.73
2019-05-25T14:05:07.845Z,3.43
2019-05-25T14:07:37.265Z,3.50
2019-05-25T14:10:12.023Z,3.10
2019-05-25T14:12:40.507Z,3.23
2019-05-25T14:15:10.351Z,3.20
2019-05-25T14:17:44.294Z,2.80
2019-05-25T14:20:18.929Z,2.80
2019-05-25T14:22:49.989Z,2.83
2019-05-25T14:25:21.407Z,2.50
2019-05-25T14:27:55.815Z,3.00
2019-05-25T14:30:27.037Z,2.80
2019-05-25T14:33:00.038Z,2.50
2019-05-25T14:35:38.026Z,2.60
2019-05-25T14:38:06.481Z,2.33
2019-05-25T14:40:36.221Z,2.20
2019-05-25T14:43:04.622Z,2.30
2019-05-25T14:45:35.623Z,2.80
2019-05-25T14:48:06.907Z,2.87
2019-05-25T14:50:41.363Z,2.90
2019-05-25T14:53:09.796Z,3.17
2019-05-25T14:55:38.210Z,3.17
2019-05-25T14:58:06.638Z,3.03
2019-05-25T15:00:42.098Z,2.70
2019-05-25T15:03:11.418Z,2.60
2019-05-25T15:05:42.634Z,2.97
2019-05-25T15:08:15.874Z,2.77
2019-05-25T15:11:05.361Z,2.60
2019-05-25T15:13:39.989Z,2.57
2019-05-25T15:16:13.996Z,2.43
2019-05-25T15:18:46.147Z,2.57
2019-05-25T15:21:14.570Z,2.37
2019-05-25T15:23:44.942Z,2.27
2019-05-25T15:26:15.933Z,2.10
2019-05-25T15:28:44.461Z,2.00
2019-05-25T15:31:17.482Z,2.37
2019-05-25T15:33:46.029Z,2.40
2019-05-25T15:36:16.197Z,2.40
2019-05-25T15:38:49.587Z,2.37
2019-05-25T15:41:19.269Z,2.00
2019-05-25T15:43:49.337Z,1.73
2019-05-25T15:46:17.779Z,1.87
2019-05-25T15:48:53.928Z,1.50
2019-05-25T15:51:22.349Z,1.50
2019-05-25T15:53:51.574Z,1.50
2019-05-25T15:56:19.989Z,1.47
2019-05-25T15:58:48.803Z,1.60
2019-05-25T16:01:17.288Z,1.50
2019-05-25T16:03:50.359Z,1.37
2019-05-25T16:06:18.774Z,1.50
2019-05-25T16:11:32.214Z,1.53
2019-05-25T16:14:07.623Z,1.50
2019-05-25T16:16:38.628Z,1.67
2019-05-25T16:19:07.087Z,1.50
2019-05-25T16:21:39.893Z,1.60
2019-05-25T16:24:11.489Z,1.30
2019-05-25T16:26:46.036Z,1.40
2019-05-25T16:29:22.974Z,1.50
2019-05-25T16:31:54.154Z,1.63
2019-05-25T16:34:22.560Z,1.70
2019-05-25T16:36:53.762Z,1.77
2019-05-25T16:39:25.309Z,1.80
2019-05-25T16:41:53.829Z,2.07
2019-05-25T16:44:22.251Z,2.00
2019-05-25T16:46:50.682Z,1.60
2019-05-25T16:49:21.939Z,1.50
2019-05-25T16:51:50.773Z,1.50
2019-05-25T16:54:22.169Z,1.50
2019-05-25T16:56:50.593Z,1.80
2019-05-25T16:59:19.081Z,1.57
2019-05-25T17:01:48.853Z,1.50
2019-05-25T17:04:17.565Z,1.83
2019-05-25T17:06:52.099Z,1.60
2019-05-25T17:09:20.805Z,1.43
2019-05-25T17:11:52.349Z,1.63
2019-05-25T17:14:21.139Z,1.77
2019-05-25T17:16:52.285Z,1.80
2019-05-25T17:19:20.718Z,1.80
2019-05-25T17:21:51.839Z,1.50
2019-05-25T17:24:23.141Z,1.63
2019-05-25T17:26:54.469Z,1.90
2019-05-25T17:29:22.895Z,1.60
2019-05-25T17:31:54.233Z,1.70
2019-05-25T17:34:25.198Z,1.80
2019-05-25T17:36:56.297Z,1.70
2019-05-25T17:39:25.033Z,2.00
2019-05-25T17:41:55.934Z,2.00
2019-05-25T17:44:27.339Z,2.00
2019-05-25T17:46:55.746Z,1.67
2019-05-25T17:49:24.181Z,1.70
2019-05-25T17:51:55.710Z,1.70
2019-05-25T17:54:24.163Z,1.77
2019-05-25T17:56:52.582Z,1.80
2019-05-25T17:59:24.233Z,1.73
2019-05-25T18:01:52.686Z,1.50
2019-05-25T18:04:26.005Z,2.00
2019-05-25T18:06:54.962Z,1.90
2019-05-25T18:09:23.390Z,1.60
2019-05-25T18:11:51.850Z,1.93
2019-05-25T18:14:20.315Z,1.70
2019-05-25T18:16:50.363Z,2.10
2019-05-25T18:19:19.646Z,2.00
2019-05-25T18:21:48.071Z,1.90
2019-05-25T18:24:19.419Z,1.83
2019-05-25T18:26:47.843Z,2.03
2019-05-25T18:29:26.334Z,1.90
2019-05-25T18:32:00.718Z,2.10
2019-05-25T18:34:31.837Z,2.43
2019-05-25T18:37:03.100Z,2.43
2019-05-25T18:39:33.369Z,2.43
2019-05-25T18:42:09.431Z,2.67
2019-05-25T18:44:40.877Z,3.07
2019-05-25T18:47:10.806Z,3.10
2019-05-25T18:49:42.169Z,2.80
2019-05-25T18:52:13.515Z,2.90
2019-05-25T18:54:50.930Z,3.23
2019-05-25T18:57:31.083Z,2.97
2019-05-25T18:59:59.507Z,2.97
2019-05-25T19:02:32.646Z,3.67
2019-05-25T19:05:07.684Z,3.33
2019-05-25T19:07:38.808Z,3.70
2019-05-25T19:10:11.455Z,3.00
2019-05-25T19:12:42.947Z,2.57
2019-05-25T19:15:14.988Z,4.37
2019-05-25T19:17:46.722Z,5.10
2019-05-25T19:20:21.197Z,5.00
2019-05-25T19:22:52.448Z,5.60
2019-05-25T19:25:23.531Z,5.17
2019-05-25T19:28:03.641Z,11.13
2019-05-25T19:30:33.660Z,12.37
2019-05-25T19:33:05.254Z,6.73
2019-05-25T19:35:35.684Z,6.13
2019-05-25T19:38:06.814Z,6.20
2019-05-25T19:40:35.301Z,8.03
2019-05-25T19:43:03.732Z,7.90
2019-05-25T19:45:32.997Z,8.10
2019-05-25T19:48:01.704Z,7.03
2019-05-25T19:50:36.834Z,6.87
2019-05-25T19:53:11.391Z,6.40
2019-05-25T19:55:48.664Z,7.13
2019-05-25T19:58:22.878Z,6.40
2019-05-25T20:01:02.989Z,6.50
2019-05-25T20:03:33.293Z,7.03
2019-05-25T20:06:04.793Z,6.47
2019-05-25T20:08:41.405Z,7.03
2019-05-25T20:11:09.862Z,6.30
2019-05-25T20:13:40.921Z,7.17
2019-05-25T20:16:09.358Z,7.63
2019-05-25T20:18:38.171Z,6.83
2019-05-25T20:21:09.904Z,7.40
2019-05-25T20:23:38.397Z,6.47
2019-05-25T20:26:09.845Z,5.67
2019-05-25T20:28:41.191Z,6.03
2019-05-25T20:31:09.666Z,5.30
2019-05-25T20:33:40.643Z,6.87
2019-05-25T20:36:11.048Z,6.13
2019-05-25T20:38:39.466Z,4.93
2019-05-25T20:41:07.887Z,5.30
2019-05-25T20:43:37.947Z,4.67
2019-05-25T20:46:11.121Z,5.47
2019-05-25T20:48:42.242Z,5.23
2019-05-25T20:51:14.497Z,4.80
2019-05-25T20:53:42.946Z,4.80
2019-05-25T20:56:11.383Z,4.53
2019-05-25T20:58:42.533Z,5.20
2019-05-25T21:01:10.967Z,4.80
2019-05-25T21:03:42.398Z,4.60
2019-05-25T21:06:11.651Z,5.33
2019-05-25T21:08:45.633Z,5.77
2019-05-25T21:11:17.812Z,5.43
2019-05-25T21:13:46.276Z,5.43
2019-05-25T21:16:19.297Z,5.07
2019-05-25T21:18:49.377Z,5.20
2019-05-25T21:21:20.760Z,6.20
2019-05-25T21:23:49.183Z,5.50
2019-05-25T21:26:17.791Z,5.00
2019-05-25T21:28:49.006Z,5.20
2019-05-25T21:31:23.805Z,5.10
2019-05-25T21:33:53.559Z,5.07
2019-05-25T21:36:25.070Z,5.17
2019-05-25T21:38:56.275Z,5.23
2019-05-25T21:41:27.626Z,5.27
2019-05-25T21:43:56.047Z,5.97
2019-05-25T21:46:29.718Z,6.20
2019-05-25T21:48:58.133Z,5.70
2019-05-25T21:51:38.222Z,5.43
2019-05-25T21:54:12.306Z,5.90
2019-05-25T21:56:43.560Z,5.73
2019-05-25T21:59:18.802Z,6.00
2019-05-25T22:01:49.917Z,5.40
2019-05-25T22:04:30.021Z,5.93
2019-05-25T22:07:03.855Z,6.33
2019-05-25T22:09:35.017Z,5.73
2019-05-25T22:12:06.480Z,5.70
2019-05-25T22:14:34.891Z,6.70
2019-05-25T22:17:03.416Z,5.90
2019-05-25T22:19:34.601Z,5.60
2019-05-25T22:22:07.391Z,6.03
2019-05-25T22:24:35.804Z,5.93
2019-05-25T22:27:06.955Z,6.03
2019-05-25T22:29:44.246Z,5.73
2019-05-25T22:32:17.679Z,5.90
2019-05-25T22:34:47.459Z,5.47
2019-05-25T22:37:20.385Z,5.30
2019-05-25T22:39:48.805Z,6.57
2019-05-25T22:42:20.549Z,6.80
2019-05-25T22:44:50.621Z,6.40
2019-05-25T22:47:23.967Z,6.00
2019-05-25T22:49:52.377Z,6.53
2019-05-25T22:52:20.978Z,6.17
2019-05-25T22:54:51.041Z,6.40
2019-05-25T22:57:19.468Z,7.07
2019-05-25T22:59:47.881Z,6.70
2019-05-25T23:02:25.319Z,7.53
2019-05-25T23:05:16.430Z,7.90
2019-05-25T23:07:49.275Z,7.20
2019-05-25T23:10:23.487Z,7.57
2019-05-25T23:12:57.867Z,6.33
2019-05-25T23:15:31.701Z,6.87
2019-05-25T23:18:00.138Z,6.70
2019-05-25T23:20:31.446Z,6.87
2019-05-25T23:23:05.567Z,6.30
2019-05-25T23:25:33.980Z,5.70
2019-05-25T23:28:08.529Z,6.33
2019-05-25T23:30:40.298Z,6.00
2019-05-25T23:33:09.516Z,6.30
2019-05-25T23:35:46.877Z,6.77
2019-05-25T23:38:15.308Z,7.50
2019-05-25T23:40:55.726Z,7.57
2019-05-25T23:43:26.155Z,7.73
2019-05-25T23:46:00.571Z,8.03
2019-05-25T23:48:32.570Z,8.00
2019-05-25T23:51:08.787Z,7.90
2019-05-25T23:53:40.786Z,7.10
2019-05-25T23:56:09.197Z,7.50
2019-05-25T23:58:42.969Z,7.20
